Time;durP1;ratioP1;P1;durP2;ratioP2;P2;SDS_P1;SDS_P2;PMS_P1;PMS_P2;Temp;Humidity;BMP_temperature;BMP_pressure;BME280_temperature;BME280_humidity;BME280_pressure;Samples;Min_cycle;Max_cycle;Signal;HPM_P1;HPM_P2
2020/12/22 00:02:27;;;;;;;21.97;14.78;;;;;;;1.69;90.81;99915.40;1633606;86;21179;-66
2020/12/22 00:04:55;;;;;;;22.32;15.05;;;;;;;1.70;90.78;99910.66;1637398;86;21064;-66
2020/12/22 00:07:24;;;;;;;27.20;16.45;;;;;;;1.70;90.84;99908.08;1641388;86;21254;-66
2020/12/22 00:09:52;;;;;;;27.10;16.80;;;;;;;1.70;90.84;99910.66;1639337;86;21315;-66
2020/12/22 00:12:21;;;;;;;23.15;16.17;;;;;;;1.71;90.86;99912.35;1604867;88;21222;-66
2020/12/22 00:14:49;;;;;;;26.50;16.00;;;;;;;1.71;90.88;99909.37;1636830;86;21211;-66
2020/12/22 00:17:17;;;;;;;27.07;16.05;;;;;;;1.74;90.94;99902.06;1635168;86;21189;-66
2020/12/22 00:19:46;;;;;;;21.40;14.75;;;;;;;1.76;90.93;99904.16;1644111;86;21329;-66
2020/12/22 00:22:13;;;;;;;26.75;16.15;;;;;;;1.78;90.90;99903.73;1595550;88;21310;-67
2020/12/22 00:24:42;;;;;;;28.47;17.40;;;;;;;1.81;90.93;99895.13;1639356;85;22011;-67
2020/12/22 00:27:11;;;;;;;23.05;16.70;;;;;;;1.83;90.95;99895.53;1634059;86;21144;-66
2020/12/22 00:29:40;;;;;;;20.10;14.93;;;;;;;1.86;90.93;99889.06;1635248;86;21124;-66
2020/12/22 00:32:10;;;;;;;24.20;14.78;;;;;;;1.87;90.91;99890.77;1638469;86;21151;-66
2020/12/22 00:34:38;;;;;;;22.05;15.80;;;;;;;1.89;90.94;99886.46;1638536;86;21406;-66
2020/12/22 00:37:07;;;;;;;19.57;14.38;;;;;;;1.89;90.89;99882.60;1644916;85;21056;-66
2020/12/22 00:39:36;;;;;;;20.00;13.62;;;;;;;1.91;90.94;99879.59;1590669;88;21040;-66
2020/12/22 00:42:03;;;;;;;20.37;12.90;;;;;;;1.92;90.96;99865.83;1644012;86;21029;-66
2020/12/22 00:44:32;;;;;;;22.95;15.08;;;;;;;1.93;90.96;99867.55;1635860;86;21199;-66
2020/12/22 00:47:00;;;;;;;25.85;16.60;;;;;;;1.93;90.95;99868.84;1638935;86;21201;-66
2020/12/22 00:49:28;;;;;;;28.80;17.30;;;;;;;1.93;90.92;99863.69;1640626;86;21263;-67
2020/12/22 00:52:02;;;;;;;27.75;17.92;;;;;;;1.91;90.92;99843.53;1599602;88;21146;-66
2020/12/22 00:54:31;;;;;;;26.30;18.02;;;;;;;1.90;90.91;99844.38;1643314;86;21323;-66
2020/12/22 00:56:59;;;;;;;30.20;18.17;;;;;;;1.87;90.84;99830.25;1608412;88;21104;-66
2020/12/22 00:59:27;;;;;;;29.10;18.62;;;;;;;1.85;90.81;99827.27;1648690;86;21202;-66
2020/12/22 01:01:55;;;;;;;24.27;15.95;;;;;;;1.81;90.81;99828.19;1628390;86;21131;-66
2020/12/22 01:04:24;;;;;;;26.17;16.32;;;;;;;1.77;90.88;99827.38;1641605;86;21143;-66
2020/12/22 01:06:52;;;;;;;23.73;17.05;;;;;;;1.74;90.89;99832.55;1603823;88;21190;-66
2020/12/22 01:09:22;;;;;;;27.80;17.95;;;;;;;1.71;90.95;99829.98;1609835;88;21166;-66
2020/12/22 01:11:53;;;;;;;22.52;16.82;;;;;;;1.70;91.04;99825.71;1628468;86;22594;-66
2020/12/22 01:14:23;;;;;;;30.37;17.75;;;;;;;1.71;91.07;99813.25;1630439;86;21676;-66
2020/12/22 01:16:55;;;;;;;29.40;18.73;;;;;;;1.70;91.09;99801.26;1628293;86;21051;-66
2020/12/22 01:19:23;;;;;;;29.92;19.30;;;;;;;1.69;91.15;99796.98;1629036;86;21024;-66
2020/12/22 01:21:55;;;;;;;27.13;17.75;;;;;;;1.68;91.18;99799.12;1635663;86;21296;-66
2020/12/22 01:24:24;;;;;;;22.52;16.50;;;;;;;1.69;91.19;99790.55;1641502;86;21180;-65
2020/12/22 01:26:55;;;;;;;30.40;18.52;;;;;;;1.69;91.20;99785.41;1630830;86;21196;-66
2020/12/22 01:29:24;;;;;;;29.98;18.87;;;;;;;1.69;91.21;99782.83;1641158;86;21225;-66
2020/12/22 01:31:54;;;;;;;26.62;17.25;;;;;;;1.68;91.21;99763.09;1645605;86;21214;-66
2020/12/22 01:34:24;;;;;;;26.93;16.87;;;;;;;1.69;91.28;99759.66;1649145;85;21641;-66
2020/12/22 01:36:53;;;;;;;24.85;17.57;;;;;;;1.70;91.27;99761.36;1660324;85;21238;-67
2020/12/22 01:39:22;;;;;;;31.33;19.17;;;;;;;1.70;91.22;99756.21;1656650;85;21119;-67
2020/12/22 01:41:50;;;;;;;25.52;17.35;;;;;;;1.70;91.21;99744.19;1638330;86;21939;-66
2020/12/22 01:44:19;;;;;;;30.43;17.67;;;;;;;1.70;91.19;99738.20;1635260;86;21246;-67
2020/12/22 01:46:51;;;;;;;26.70;17.48;;;;;;;1.71;91.27;99742.46;1632102;86;21162;-66
2020/12/22 01:49:25;;;;;;;28.60;18.50;;;;;;;1.73;91.29;99740.73;1653313;86;21217;-66
2020/12/22 01:52:14;;;;;;;26.50;17.07;;;;;;;1.74;91.25;99732.16;1646283;86;21258;-66
2020/12/22 01:54:46;;;;;;;27.13;17.95;;;;;;;1.76;91.31;99726.53;1634572;85;21171;-66
2020/12/22 01:57:14;;;;;;;26.50;17.62;;;;;;;1.78;91.36;99720.94;1643676;85;21159;-66
2020/12/22 01:59:43;;;;;;;28.23;17.32;;;;;;;1.78;91.35;99718.37;1644112;85;21062;-66
2020/12/22 02:02:10;;;;;;;31.30;18.60;;;;;;;1.80;91.33;99719.22;1633881;85;21212;-66
2020/12/22 02:04:38;;;;;;;;;;;;;;;1.80;91.30;99714.06;1639715;85;20997;-66
2020/12/22 02:07:08;;;;;;;29.87;18.35;;;;;;;1.81;91.35;99708.03;1644377;85;20533;-67
2020/12/22 02:09:36;;;;;;;25.25;17.77;;;;;;;1.82;91.36;99704.61;1635809;86;21605;-66
2020/12/22 02:12:04;;;;;;;27.73;19.42;;;;;;;1.83;91.34;99701.16;1629701;85;20964;-66
2020/12/22 02:14:33;;;;;;;31.73;19.05;;;;;;;1.84;91.37;99702.84;1620287;87;21235;-66
2020/12/22 02:17:02;;;;;;;32.33;19.42;;;;;;;1.86;91.38;99689.97;1633543;85;21039;-66
2020/12/22 02:19:30;;;;;;;26.23;17.60;;;;;;;1.88;91.44;99678.78;1636324;85;21149;-66
2020/12/22 02:21:58;;;;;;;32.33;19.95;;;;;;;1.93;91.59;99681.28;1642835;86;21197;-66
2020/12/22 02:24:27;;;;;;;28.95;19.23;;;;;;;1.98;91.58;99669.20;1609478;88;21231;-66
2020/12/22 02:26:56;;;;;;;30.12;20.17;;;;;;;2.02;91.54;99672.16;1636702;85;21229;-66
2020/12/22 02:29:24;;;;;;;33.70;21.25;;;;;;;2.06;91.53;99676.83;1632591;85;21273;-66
2020/12/22 02:31:53;;;;;;;33.78;20.82;;;;;;;2.09;91.47;99674.21;1635403;85;21150;-66
2020/12/22 02:34:21;;;;;;;37.10;21.33;;;;;;;2.12;91.48;99658.71;1635033;85;21118;-66
2020/12/22 02:36:51;;;;;;;35.25;22.05;;;;;;;2.16;91.46;99661.68;1657751;85;21163;-66
2020/12/22 02:39:19;;;;;;;38.42;22.75;;;;;;;2.18;91.47;99650.89;1639535;85;21218;-66
2020/12/22 02:41:47;;;;;;;36.77;22.95;;;;;;;2.22;91.47;99642.27;1619983;87;21065;-66
2020/12/22 02:44:16;;;;;;;35.80;23.75;;;;;;;2.24;91.51;99637.92;1638644;85;21253;-66
2020/12/22 02:46:44;;;;;;;37.05;22.85;;;;;;;2.27;91.50;99626.72;1636995;85;21039;-66
2020/12/22 02:49:13;;;;;;;39.73;24.43;;;;;;;2.29;91.48;99633.55;1635589;86;21325;-66
2020/12/22 02:51:42;;;;;;;40.12;23.70;;;;;;;2.31;91.52;99622.80;1631142;87;21301;-66
2020/12/22 02:54:10;;;;;;;38.23;24.63;;;;;;;2.33;91.49;99617.19;1650912;85;21028;-66
2020/12/22 02:56:39;;;;;;;40.20;24.02;;;;;;;2.35;91.50;99618.02;1646141;86;21093;-66
2020/12/22 02:59:07;;;;;;;37.55;22.90;;;;;;;2.37;91.50;99608.52;1645931;86;21128;-66
2020/12/22 03:01:39;;;;;;;40.03;23.25;;;;;;;2.40;91.46;99605.89;1609464;87;21089;-66
2020/12/22 03:04:09;;;;;;;37.83;23.65;;;;;;;2.40;91.44;99595.59;1624732;86;21238;-66
2020/12/22 03:06:40;;;;;;;44.27;25.32;;;;;;;2.41;91.42;99591.31;1630381;86;21638;-66
2020/12/22 03:09:09;;;;;;;40.60;24.70;;;;;;;2.39;91.40;99590.03;1638635;86;21561;-66
2020/12/22 03:11:37;;;;;;;42.20;25.05;;;;;;;2.37;91.41;99580.18;1629986;86;21171;-66
2020/12/22 03:14:05;;;;;;;37.40;22.55;;;;;;;2.36;91.44;99578.48;1623439;86;21199;-66
2020/12/22 03:16:34;;;;;;;38.75;23.95;;;;;;;2.37;91.45;99560.85;1622875;86;21237;-66
2020/12/22 03:19:04;;;;;;;38.28;24.85;;;;;;;2.38;91.45;99574.17;1626630;86;21138;-66
2020/12/22 03:21:33;;;;;;;38.85;24.30;;;;;;;2.38;91.46;99574.17;1633795;86;21637;-66
2020/12/22 03:24:01;;;;;;;38.55;24.75;;;;;;;2.39;91.44;99562.13;1631593;86;21096;-66
2020/12/22 03:26:30;;;;;;;33.23;21.25;;;;;;;2.39;91.45;99560.40;1641859;84;21218;-66
2020/12/22 03:28:58;;;;;;;43.23;24.63;;;;;;;2.41;91.46;99558.66;1619517;87;21224;-66
2020/12/22 03:31:27;;;;;;;39.70;23.52;;;;;;;2.42;91.47;99552.61;1618138;87;21182;-66
2020/12/22 03:33:55;;;;;;;34.08;22.98;;;;;;;2.44;91.50;99550.87;1633858;86;21075;-66
2020/12/22 03:36:27;;;;;;;40.12;23.67;;;;;;;2.44;91.44;99539.72;1636423;86;20989;-66
2020/12/22 03:38:56;;;;;;;38.50;23.85;;;;;;;2.43;91.49;99538.84;1607861;87;21195;-66
2020/12/22 03:41:24;;;;;;;36.65;22.00;;;;;;;2.44;91.50;99537.98;1627018;86;21236;-66
2020/12/22 03:43:54;;;;;;;35.20;23.05;;;;;;;2.46;91.52;99525.94;1632593;86;21690;-66
2020/12/22 03:46:22;;;;;;;33.50;21.77;;;;;;;2.46;91.49;99531.09;1635699;86;21211;-66
2020/12/22 03:48:52;;;;;;;39.23;22.25;;;;;;;2.48;91.51;99521.18;1611464;87;21175;-66
2020/12/22 03:51:21;;;;;;;35.35;21.82;;;;;;;2.48;91.54;99523.75;1633193;86;21187;-66
2020/12/22 03:53:49;;;;;;;36.65;23.73;;;;;;;2.48;91.58;99512.16;1642999;85;21342;-66
2020/12/22 03:56:18;;;;;;;31.77;21.90;;;;;;;2.48;91.53;99509.58;1643169;86;21012;-66
2020/12/22 03:58:46;;;;;;;29.77;19.98;;;;;;;2.48;91.53;99496.70;1646428;86;21020;-66
2020/12/22 04:01:14;;;;;;;;;;;;;;;2.46;91.51;99492.84;1650925;85;21072;-66
2020/12/22 04:03:44;;;;;;;30.52;21.75;;;;;;;2.48;91.51;99500.12;1642956;86;20254;-66
2020/12/22 04:06:12;;;;;;;33.83;22.42;;;;;;;2.46;91.50;99495.01;1642347;86;21213;-66
2020/12/22 04:08:40;;;;;;;33.75;21.85;;;;;;;2.46;91.51;99497.59;1643042;86;21091;-66
2020/12/22 04:11:09;;;;;;;29.30;21.15;;;;;;;2.46;91.51;99485.98;1642346;87;21247;-66
2020/12/22 04:13:37;;;;;;;32.33;20.62;;;;;;;2.44;91.47;99482.58;1642676;86;21210;-66
2020/12/22 04:16:05;;;;;;;34.05;22.27;;;;;;;2.46;91.45;99488.56;1642543;86;21270;-66
2020/12/22 04:18:33;;;;;;;;;;;;;;;2.45;91.44;99480.41;1644176;86;22243;-66
2020/12/22 04:21:01;;;;;;;32.53;21.37;;;;;;;2.44;91.44;99480.00;1642416;86;20585;-66
2020/12/22 04:23:29;;;;;;;;;;;;;;;2.42;91.40;99457.27;1643505;86;21035;-66
2020/12/22 04:25:57;;;;;;;30.92;21.23;;;;;;;2.44;91.43;99462.41;1641344;85;20336;-66
2020/12/22 04:28:26;;;;;;;33.08;20.92;;;;;;;2.39;91.27;99452.17;1636764;86;21131;-66
2020/12/22 04:30:54;;;;;;;31.17;20.60;;;;;;;2.36;91.30;99451.39;1642347;86;22175;-66
2020/12/22 04:33:23;;;;;;;30.77;21.05;;;;;;;2.33;91.23;99449.72;1648681;86;21893;-66
2020/12/22 04:35:51;;;;;;;33.53;22.52;;;;;;;2.29;91.20;99445.48;1642660;86;21024;-66
2020/12/22 04:38:19;;;;;;;34.18;21.93;;;;;;;2.26;91.15;99440.38;1642584;86;21068;-66
2020/12/22 04:40:48;;;;;;;27.13;20.00;;;;;;;2.21;91.12;99435.75;1630208;86;21051;-66
2020/12/22 04:43:17;;;;;;;34.60;21.93;;;;;;;2.18;91.15;99434.52;1655165;85;21240;-66
2020/12/22 04:45:50;;;;;;;35.48;23.80;;;;;;;2.16;91.20;99432.43;1647347;86;21135;-66
2020/12/22 04:48:20;;;;;;;35.85;22.82;;;;;;;2.14;91.20;99422.58;1627615;86;21149;-66
2020/12/22 04:50:48;;;;;;;33.88;22.87;;;;;;;2.12;91.23;99421.75;1628368;86;21224;-66
2020/12/22 04:53:18;;;;;;;34.40;23.85;;;;;;;2.11;91.24;99414.91;1647279;85;21147;-66
2020/12/22 04:55:46;;;;;;;38.85;23.67;;;;;;;2.09;91.25;99408.94;1619126;87;21230;-66
2020/12/22 04:58:15;;;;;;;34.48;24.37;;;;;;;2.07;91.24;99396.52;1635757;86;21134;-66
2020/12/22 05:00:44;;;;;;;37.10;24.12;;;;;;;2.05;91.27;99400.86;1644611;85;21129;-66
2020/12/22 05:03:13;;;;;;;38.02;24.02;;;;;;;2.03;91.26;99402.61;1643451;85;21092;-66
2020/12/22 05:05:43;;;;;;;35.08;23.77;;;;;;;2.03;91.27;99403.89;1644652;85;21266;-66
2020/12/22 05:08:11;;;;;;;35.05;23.92;;;;;;;2.01;91.27;99400.89;1644571;85;22396;-66
2020/12/22 05:10:44;;;;;;;36.05;25.75;;;;;;;2.00;91.26;99403.06;1648003;85;21170;-66
2020/12/22 05:13:14;;;;;;;40.40;27.77;;;;;;;2.00;91.31;99400.48;1645665;86;21179;-66
2020/12/22 05:15:44;;;;;;;48.25;29.98;;;;;;;2.00;91.29;99388.91;1637987;86;21216;-66
2020/12/22 05:18:13;;;;;;;50.25;29.48;;;;;;;2.00;91.27;99390.19;1640519;86;21198;-66
2020/12/22 05:20:42;;;;;;;47.83;31.73;;;;;;;1.99;91.26;99390.23;1634606;86;21234;-66
2020/12/22 05:23:18;;;;;;;45.55;31.23;;;;;;;1.98;91.28;99381.63;1630660;86;21047;-66
2020/12/22 05:25:49;;;;;;;44.20;29.98;;;;;;;2.01;91.32;99384.59;1618836;87;21091;-66
2020/12/22 05:28:22;;;;;;;49.20;30.70;;;;;;;2.00;91.31;99379.05;1643735;85;21632;-66
2020/12/22 05:30:50;;;;;;;51.53;32.13;;;;;;;2.00;91.32;99368.30;1613712;87;21184;-66
2020/12/22 05:33:40;;;;;;;45.75;29.95;;;;;;;2.00;91.32;99368.30;1632621;86;21258;-66
2020/12/22 05:36:09;;;;;;;47.73;30.62;;;;;;;2.00;91.32;99367.02;1633841;86;21200;-66
2020/12/22 05:38:38;;;;;;;46.50;30.00;;;;;;;2.00;91.36;99364.44;1643059;85;21332;-66
2020/12/22 05:41:07;;;;;;;48.15;30.65;;;;;;;2.01;91.36;99360.98;1635541;85;21269;-67
2020/12/22 05:43:41;;;;;;;45.88;30.20;;;;;;;2.05;91.36;99358.38;1617751;86;21242;-66
2020/12/22 05:46:10;;;;;;;49.50;28.95;;;;;;;2.04;91.33;99343.78;1633227;86;21222;-66
2020/12/22 05:48:38;;;;;;;47.33;30.30;;;;;;;2.04;91.33;99341.20;1629682;86;21208;-66
2020/12/22 05:51:07;;;;;;;41.40;28.65;;;;;;;2.03;91.34;99333.08;1631807;86;21163;-66
2020/12/22 05:53:46;;;;;;;45.15;31.15;;;;;;;2.05;91.34;99330.05;1622362;86;21289;-66
2020/12/22 05:56:19;;;;;;;43.23;29.95;;;;;;;2.05;91.33;99328.31;1631124;87;21230;-66
2020/12/22 05:58:47;;;;;;;47.95;31.75;;;;;;;2.05;91.32;99314.59;1626728;86;22174;-66
2020/12/22 06:01:18;;;;;;;48.92;30.35;;;;;;;2.06;91.33;99316.28;1629460;86;21203;-66
2020/12/22 06:03:48;;;;;;;47.33;31.17;;;;;;;2.05;91.33;99312.02;1618162;86;21254;-66
2020/12/22 06:06:17;;;;;;;43.68;28.65;;;;;;;2.04;91.32;99302.58;1628332;86;21159;-66
2020/12/22 06:08:49;;;;;;;45.10;29.52;;;;;;;2.04;91.29;99293.56;1622161;86;21167;-66
2020/12/22 06:11:18;;;;;;;46.10;30.32;;;;;;;2.03;91.32;99290.59;1603350;88;21229;-66
2020/12/22 06:13:50;;;;;;;47.08;30.70;;;;;;;2.03;91.31;99286.73;1621834;87;21087;-66
2020/12/22 06:16:21;;;;;;;50.00;31.15;;;;;;;2.01;91.30;99278.57;1625048;86;21664;-66
2020/12/22 06:18:51;;;;;;;46.10;29.52;;;;;;;2.00;91.31;99275.59;1618218;87;21245;-67
2020/12/22 06:21:20;;;;;;;40.55;29.70;;;;;;;2.00;91.31;99274.31;1612557;87;21111;-66
2020/12/22 06:23:51;;;;;;;45.40;29.63;;;;;;;2.01;91.29;99265.70;1617005;86;21193;-66
2020/12/22 06:26:22;;;;;;;56.33;32.28;;;;;;;1.99;91.32;99258.47;1626318;86;21258;-66
2020/12/22 06:28:49;;;;;;;51.50;30.80;;;;;;;1.99;91.31;99253.31;1628171;86;21256;-66
2020/12/22 06:31:24;;;;;;;45.98;31.48;;;;;;;1.97;91.32;99242.19;1626515;86;21171;-66
2020/12/22 06:33:53;;;;;;;45.12;29.37;;;;;;;1.98;91.33;99247.73;1620577;86;21248;-66
2020/12/22 06:36:22;;;;;;;45.23;29.70;;;;;;;1.99;91.35;99239.59;1622756;86;21395;-66
2020/12/22 06:38:58;;;;;;;47.23;30.23;;;;;;;1.98;91.36;99229.71;1621577;87;21245;-66
2020/12/22 06:41:43;;;;;;;46.85;30.60;;;;;;;1.99;91.36;99225.44;1617927;87;21222;-66
2020/12/22 06:44:15;;;;;;;47.65;30.95;;;;;;;1.98;91.35;99223.27;1622186;87;21700;-67
2020/12/22 06:46:45;;;;;;;46.45;30.68;;;;;;;1.98;91.33;99228.42;1626888;86;21609;-66
2020/12/22 06:49:13;;;;;;;45.38;31.75;;;;;;;1.97;91.34;99222.87;1651640;85;22104;-67
2020/12/22 06:51:43;;;;;;;47.93;31.35;;;;;;;1.97;91.35;99217.73;1648056;85;21096;-66
2020/12/22 06:54:18;;;;;;;46.60;32.50;;;;;;;1.97;91.34;99215.16;1633416;86;21256;-67
2020/12/22 06:56:52;;;;;;;52.25;33.50;;;;;;;1.99;91.34;99208.25;1617967;86;21170;-66
2020/12/22 06:59:47;;;;;;;46.75;32.25;;;;;;;1.99;91.38;99197.95;1621504;86;21226;-66
2020/12/22 07:02:36;;;;;;;50.10;32.20;;;;;;;1.98;91.34;99180.79;1643251;86;22186;-66
2020/12/22 07:05:06;;;;;;;48.10;33.08;;;;;;;1.99;91.36;99176.52;1647229;85;21188;-66
2020/12/22 07:07:57;;;;;;;47.48;31.35;;;;;;;1.99;91.39;99164.48;1622118;85;21095;-67
2020/12/22 07:10:28;;;;;;;51.70;32.05;;;;;;;1.98;91.37;99155.04;1621662;87;21264;-66
2020/12/22 07:13:01;;;;;;;49.05;32.03;;;;;;;1.98;91.38;99155.04;1621642;87;21622;-65
2020/12/22 07:15:39;;;;;;;48.83;32.03;;;;;;;1.98;91.42;99153.75;1621860;87;21238;-65
2020/12/22 07:18:13;;;;;;;46.02;32.28;;;;;;;1.98;91.41;99149.89;1654867;84;21170;-66
2020/12/22 07:20:43;;;;;;;45.83;29.48;;;;;;;1.99;91.42;99146.45;1618847;87;21254;-66
2020/12/22 07:23:15;;;;;;;41.60;31.52;;;;;;;1.98;91.44;99137.02;1626275;87;21281;-66
2020/12/22 07:25:44;;;;;;;51.10;33.92;;;;;;;1.99;91.43;99128.43;1625971;87;21660;-66
2020/12/22 07:28:13;;;;;;;50.73;32.33;;;;;;;1.99;91.42;99133.58;1624027;86;21198;-66
2020/12/22 07:30:41;;;;;;;64.12;33.38;;;;;;;2.00;91.42;99122.39;1621227;87;21248;-66
2020/12/22 07:33:09;;;;;;;99.83;41.25;;;;;;;1.99;91.43;99125.86;1606730;88;21039;-66
2020/12/22 07:35:38;;;;;;;54.70;37.83;;;;;;;1.99;91.44;99115.56;1626873;86;21230;-66
2020/12/22 07:38:11;;;;;;;57.83;36.20;;;;;;;1.98;91.47;99106.12;1622214;87;21176;-66
2020/12/22 07:40:42;;;;;;;124.40;87.33;;;;;;;1.97;91.51;99100.58;1622374;86;21286;-66
2020/12/22 07:43:16;;;;;;;100.00;70.08;;;;;;;1.97;91.50;99093.30;1606870;87;21247;-66
2020/12/22 07:45:50;;;;;;;90.70;64.67;;;;;;;1.97;91.56;99087.70;1653391;84;21883;-66
2020/12/22 07:48:18;;;;;;;65.62;48.17;;;;;;;1.97;91.60;99085.13;1655880;85;21221;-66
2020/12/22 07:50:54;;;;;;;137.20;47.95;;;;;;;1.98;91.61;99075.22;1653166;85;21170;-66
2020/12/22 07:53:22;;;;;;;148.75;61.15;;;;;;;1.98;91.62;99070.07;1657940;85;22172;-66
2020/12/22 07:55:50;;;;;;;94.65;67.40;;;;;;;1.98;91.62;99068.78;1650979;86;21181;-65
2020/12/22 07:58:17;;;;;;;92.47;73.97;;;;;;;1.98;91.60;99064.92;1643928;85;21307;-73
2020/12/22 08:00:46;;;;;;;67.03;45.40;;;;;;;1.98;91.60;99054.63;1653323;85;21233;-70
2020/12/22 08:03:17;;;;;;;60.70;41.95;;;;;;;1.99;91.65;99043.46;1652337;85;21231;-68
2020/12/22 08:06:04;;;;;;;63.55;47.85;;;;;;;1.99;91.61;99043.91;1655567;85;21255;-65
2020/12/22 08:08:31;;;;;;;81.17;36.73;;;;;;;1.99;91.62;99040.89;1659957;84;21344;-66
2020/12/22 08:11:00;;;;;;;66.47;39.85;;;;;;;1.99;91.64;99038.31;1659151;84;21231;-65
2020/12/22 08:13:35;;;;;;;57.08;40.75;;;;;;;2.00;91.66;99032.27;1655924;85;21269;-65
2020/12/22 08:16:04;;;;;;;63.40;46.98;;;;;;;1.99;91.67;99024.15;1653164;85;21604;-64
2020/12/22 08:18:36;;;;;;;58.95;43.75;;;;;;;2.01;91.70;99026.23;1660081;85;21315;-63
2020/12/22 08:21:08;;;;;;;55.35;37.55;;;;;;;2.03;91.69;99014.61;1653013;85;21186;-63
2020/12/22 08:23:39;;;;;;;51.15;31.07;;;;;;;2.03;91.71;99013.33;1664253;84;21653;-64
2020/12/22 08:26:09;;;;;;;51.23;32.10;;;;;;;2.04;91.72;99006.44;1653439;84;21097;-66
2020/12/22 08:28:36;;;;;;;50.55;33.13;;;;;;;2.04;91.71;99009.02;1656849;84;21703;-64
2020/12/22 08:31:14;;;;;;;46.85;28.23;;;;;;;2.04;91.67;98999.56;1648681;84;21236;-64
2020/12/22 08:33:46;;;;;;;38.73;27.30;;;;;;;2.05;91.70;99003.01;1649164;85;21291;-68
2020/12/22 08:36:14;;;;;;;43.38;26.82;;;;;;;2.06;91.69;99002.11;1651572;84;21195;-67
2020/12/22 08:38:42;;;;;;;42.67;26.48;;;;;;;2.06;91.72;98992.66;1653641;84;21258;-67
2020/12/22 08:41:18;;;;;;;41.65;27.37;;;;;;;2.08;91.72;98990.89;1659149;84;22110;-69
2020/12/22 08:43:55;;;;;;;45.60;27.35;;;;;;;2.09;91.69;98981.43;1649974;85;21385;-69
2020/12/22 08:46:24;;;;;;;39.15;25.85;;;;;;;2.09;91.66;98982.72;1649080;85;21227;-67
2020/12/22 08:48:53;;;;;;;37.53;22.65;;;;;;;2.09;91.68;98982.72;1647775;85;21172;-68
2020/12/22 08:54:31;;;;;;;30.80;20.88;;;;;;;2.13;91.68;98961.14;1835242;77;22836;-70
2020/12/22 08:57:14;;;;;;;34.53;21.42;;;;;;;2.10;91.68;98958.65;1802717;78;21076;-68
2020/12/22 08:59:55;;;;;;;51.45;24.40;;;;;;;2.09;91.67;98954.39;1809716;78;21298;-69
2020/12/22 09:02:34;;;;;;;36.45;20.40;;;;;;;2.09;91.68;98955.23;1803129;78;21000;-68
2020/12/22 09:05:16;;;;;;;35.03;19.98;;;;;;;2.09;91.67;98945.38;1819043;78;21556;-68
2020/12/22 09:07:46;;;;;;;30.82;18.05;;;;;;;2.08;91.67;98943.25;1816505;78;21593;-67
2020/12/22 09:10:16;;;;;;;23.75;17.60;;;;;;;2.08;91.64;98933.41;1776913;78;21597;-68
2020/12/22 09:12:44;;;;;;;25.92;17.77;;;;;;;2.09;91.69;98932.50;1798345;78;21107;-67
2020/12/22 09:15:11;;;;;;;26.93;17.57;;;;;;;2.08;91.61;98928.25;1805660;78;21004;-68
2020/12/22 09:17:40;;;;;;;34.50;16.97;;;;;;;2.09;91.64;98915.77;1750094;81;21094;-68
2020/12/22 09:20:08;;;;;;;69.07;20.72;;;;;;;2.08;91.63;98917.95;1774973;80;21009;-67
2020/12/22 09:22:36;;;;;;;26.95;17.40;;;;;;;2.06;91.64;98908.12;1766370;80;21139;-68
2020/12/22 09:25:07;;;;;;;25.20;14.28;;;;;;;2.04;91.68;98897.84;1744625;81;22199;-68
2020/12/22 09:27:38;;;;;;;22.77;15.45;;;;;;;2.05;91.70;98895.70;1753203;81;21040;-70
2020/12/22 09:30:13;;;;;;;25.95;17.35;;;;;;;2.03;91.73;98891.47;1752315;81;21202;-70
2020/12/22 09:32:47;;;;;;;23.90;16.77;;;;;;;2.04;91.71;98880.27;1757894;81;21606;-69
2020/12/22 09:35:16;;;;;;;21.95;14.75;;;;;;;2.03;91.68;98876.02;1760345;81;21581;-72
2020/12/22 09:37:54;;;;;;;19.95;14.93;;;;;;;2.06;91.66;98864.35;1869691;76;22779;-69
2020/12/22 09:40:22;;;;;;;20.68;13.85;;;;;;;1.99;91.62;98863.23;1839733;76;21016;-69
2020/12/22 09:42:50;;;;;;;27.32;16.67;;;;;;;1.97;91.65;98853.85;1843166;77;21193;-70
2020/12/22 09:45:17;;;;;;;28.60;16.02;;;;;;;1.94;91.63;98840.62;1816669;77;21049;-69
2020/12/22 09:47:45;;;;;;;23.70;14.70;;;;;;;1.94;91.69;98843.19;1847773;77;21617;-69
2020/12/22 09:50:12;;;;;;;24.85;15.85;;;;;;;1.94;91.71;98834.63;1842031;77;20993;-69
2020/12/22 09:52:42;;;;;;;27.42;15.72;;;;;;;1.95;91.74;98832.45;1847184;77;21199;-69
2020/12/22 09:55:08;;;;;;;19.70;14.25;;;;;;;1.96;91.68;98821.25;1840575;77;21207;-69
2020/12/22 09:57:35;;;;;;;32.35;19.05;;;;;;;1.98;91.78;98816.46;1833545;77;21037;-67
2020/12/22 10:00:05;;;;;;;22.22;14.45;;;;;;;1.99;91.68;98809.16;1839902;77;20934;-71
2020/12/22 10:02:34;;;;;;;25.30;14.60;;;;;;;2.03;91.75;98805.21;1767671;79;21610;-69
2020/12/22 10:05:02;;;;;;;22.85;14.68;;;;;;;2.04;91.70;98800.45;1789187;79;21181;-69
2020/12/22 10:07:30;;;;;;;21.50;14.35;;;;;;;2.05;91.67;98791.86;1794408;79;21196;-71
2020/12/22 10:09:57;;;;;;;23.75;14.73;;;;;;;2.07;91.79;98787.48;1782983;79;21170;-69
2020/12/22 10:12:30;;;;;;;42.43;20.02;;;;;;;2.09;91.70;98779.29;1792807;79;21106;-70
2020/12/22 10:15:02;;;;;;;29.32;16.52;;;;;;;2.09;91.64;98774.98;1790970;79;21166;-70
2020/12/22 10:17:29;;;;;;;23.30;14.13;;;;;;;2.12;91.68;98772.77;1784552;79;21818;-70
2020/12/22 10:19:56;;;;;;;21.55;13.55;;;;;;;2.12;91.62;98762.46;1794331;79;21210;-70
2020/12/22 10:25:04;;;;;;;17.87;11.38;;;;;;;2.17;91.67;98747.73;1860461;75;22785;-71
2020/12/22 10:27:34;;;;;;;19.40;11.43;;;;;;;2.15;91.75;98744.34;1852084;76;21558;-69
2020/12/22 10:30:03;;;;;;;25.65;14.38;;;;;;;2.16;91.75;98742.19;1850333;76;22127;-69
2020/12/22 10:32:32;;;;;;;30.48;15.88;;;;;;;2.16;91.80;98734.46;1859260;75;20999;-67
2020/12/22 10:35:01;;;;;;;23.73;12.28;;;;;;;2.15;91.80;98737.91;1853387;76;21038;-67
2020/12/22 10:37:30;;;;;;;17.75;10.80;;;;;;;2.18;91.80;98736.52;1777600;78;21005;-70
2020/12/22 10:39:57;;;;;;;16.17;10.70;;;;;;;2.18;91.82;98726.22;1785824;78;21039;-69
2020/12/22 10:42:24;;;;;;;12.95;9.73;;;;;;;2.21;91.77;98723.55;1795236;78;21300;-69
2020/12/22 10:44:52;;;;;;;12.15;9.00;;;;;;;2.23;91.81;98714.06;1788153;78;21024;-69
2020/12/22 10:47:20;;;;;;;12.85;9.18;;;;;;;2.28;91.84;98709.62;1811237;78;21005;-69
2020/12/22 10:49:50;;;;;;;12.45;9.18;;;;;;;2.29;91.78;98703.57;1784100;78;21226;-70
2020/12/22 10:52:17;;;;;;;11.55;9.33;;;;;;;2.30;91.74;98702.70;1766041;78;21613;-70
2020/12/22 10:54:44;;;;;;;16.85;10.43;;;;;;;2.32;91.75;98688.02;1815994;78;22208;-70
2020/12/22 10:57:11;;;;;;;18.62;10.65;;;;;;;2.33;91.75;98685.86;1810613;78;21907;-70
2020/12/22 10:59:41;;;;;;;14.68;10.03;;;;;;;2.36;91.74;98684.48;1786007;79;21579;-70
2020/12/22 11:02:09;;;;;;;12.53;8.83;;;;;;;2.36;91.74;98673.34;1739329;79;21583;-68
2020/12/22 11:04:39;;;;;;;13.72;9.08;;;;;;;2.39;91.78;98668.92;1776797;79;21248;-71
2020/12/22 11:07:27;;;;;;;29.48;21.55;;;;;;;2.41;91.79;98674.88;1787397;78;22125;-69
2020/12/22 11:10:24;;;;;;;39.15;30.48;;;;;;;2.49;91.77;98668.17;1798124;78;27602;-71
2020/12/22 11:12:51;;;;;;;28.38;21.62;;;;;;;2.46;91.74;98662.70;1764209;79;21017;-71
2020/12/22 11:15:26;;;;;;;21.95;15.90;;;;;;;2.48;91.77;98661.80;1763434;79;21214;-71
2020/12/22 11:17:54;;;;;;;15.72;11.22;;;;;;;2.48;91.70;98657.48;1768915;79;21068;-70
2020/12/22 11:20:23;;;;;;;13.68;10.60;;;;;;;2.49;91.73;98641.12;1764657;79;21582;-70
2020/12/22 11:22:58;;;;;;;13.68;11.15;;;;;;;2.49;91.75;98641.12;1766380;79;21065;-71
2020/12/22 11:25:30;;;;;;;14.70;9.60;;;;;;;2.50;91.74;98634.27;1766046;78;21530;-71
2020/12/22 11:27:58;;;;;;;15.23;12.18;;;;;;;2.54;91.82;98627.66;1762390;78;22142;-73
2020/12/22 11:30:33;;;;;;;26.65;21.12;;;;;;;2.62;91.88;98624.84;1758919;79;21689;-72
2020/12/22 11:33:02;;;;;;;26.85;21.97;;;;;;;2.70;91.88;98629.30;1741756;79;21032;-72
2020/12/22 11:35:30;;;;;;;15.28;12.33;;;;;;;2.77;91.88;98612.72;1767053;79;21199;-72
2020/12/22 11:37:59;;;;;;;;;;;;;;;2.83;91.76;98615.12;1763609;79;21203;-70
2020/12/22 11:40:29;;;;;;;11.30;9.18;;;;;;;2.85;91.72;98608.15;1769828;79;21636;-71
2020/12/22 11:43:01;;;;;;;11.97;8.25;;;;;;;2.86;91.58;98608.56;1769024;79;21269;-71
2020/12/22 11:45:28;;;;;;;11.78;8.15;;;;;;;2.83;91.53;98599.65;1778521;79;21574;-72
2020/12/22 11:47:57;;;;;;;11.68;8.58;;;;;;;2.84;91.57;98598.74;1775590;79;21152;-72